sensor_id;sensor_type;location;lat;lon;timestamp;P1;durP1;ratioP1;P2;durP2;ratioP2
20976;SDS011;10647;51.016;3.720;2022-11-21T00:00:53;18.53;;;5.47;;
20976;SDS011;10647;51.016;3.720;2022-11-21T00:03:24;16.40;;;5.60;;
20976;SDS011;10647;51.016;3.720;2022-11-21T00:05:55;22.20;;;6.40;;
20976;SDS011;10647;51.016;3.720;2022-11-21T00:08:26;27.57;;;6.90;;
20976;SDS011;10647;51.016;3.720;2022-11-21T00:11:00;26.77;;;6.73;;
20976;SDS011;10647;51.016;3.720;2022-11-21T00:13:29;19.40;;;6.83;;
20976;SDS011;10647;51.016;3.720;2022-11-21T00:16:01;22.47;;;7.03;;
20976;SDS011;10647;51.016;3.720;2022-11-21T00:18:36;26.40;;;6.53;;
20976;SDS011;10647;51.016;3.720;2022-11-21T00:21:06;20.87;;;6.70;;
20976;SDS011;10647;51.016;3.720;2022-11-21T00:23:39;21.40;;;6.77;;
20976;SDS011;10647;51.016;3.720;2022-11-21T00:26:13;25.60;;;5.90;;
20976;SDS011;10647;51.016;3.720;2022-11-21T00:28:47;25.60;;;6.33;;
20976;SDS011;10647;51.016;3.720;2022-11-21T00:31:22;17.17;;;5.50;;
20976;SDS011;10647;51.016;3.720;2022-11-21T00:33:50;18.60;;;5.20;;
20976;SDS011;10647;51.016;3.720;2022-11-21T00:36:29;17.97;;;5.00;;
20976;SDS011;10647;51.016;3.720;2022-11-21T00:38:56;20.93;;;5.23;;
20976;SDS011;10647;51.016;3.720;2022-11-21T00:41:30;18.87;;;5.40;;
20976;SDS011;10647;51.016;3.720;2022-11-21T00:47:07;18.30;;;5.50;;
20976;SDS011;10647;51.016;3.720;2022-11-21T00:49:36;19.40;;;4.90;;
20976;SDS011;10647;51.016;3.720;2022-11-21T00:52:03;18.17;;;5.30;;
20976;SDS011;10647;51.016;3.720;2022-11-21T00:54:34;20.10;;;5.27;;
20976;SDS011;10647;51.016;3.720;2022-11-21T00:57:01;18.57;;;5.50;;
20976;SDS011;10647;51.016;3.720;2022-11-21T00:59:29;18.47;;;5.10;;
20976;SDS011;10647;51.016;3.720;2022-11-21T01:01:59;20.20;;;5.10;;
20976;SDS011;10647;51.016;3.720;2022-11-21T01:04:33;16.63;;;5.63;;
20976;SDS011;10647;51.016;3.720;2022-11-21T01:07:01;15.13;;;4.47;;
20976;SDS011;10647;51.016;3.720;2022-11-21T01:09:28;15.90;;;4.40;;
20976;SDS011;10647;51.016;3.720;2022-11-21T01:12:02;14.17;;;4.60;;
20976;SDS011;10647;51.016;3.720;2022-11-21T01:14:29;16.00;;;4.40;;
20976;SDS011;10647;51.016;3.720;2022-11-21T01:16:58;17.57;;;4.43;;
20976;SDS011;10647;51.016;3.720;2022-11-21T01:19:31;17.50;;;4.50;;
20976;SDS011;10647;51.016;3.720;2022-11-21T01:21:58;11.30;;;4.00;;
20976;SDS011;10647;51.016;3.720;2022-11-21T01:24:27;18.33;;;4.27;;
20976;SDS011;10647;51.016;3.720;2022-11-21T01:26:56;16.03;;;4.87;;
20976;SDS011;10647;51.016;3.720;2022-11-21T01:32:26;17.07;;;4.53;;
20976;SDS011;10647;51.016;3.720;2022-11-21T01:37:55;20.80;;;4.60;;
20976;SDS011;10647;51.016;3.720;2022-11-21T01:43:13;12.30;;;4.40;;
20976;SDS011;10647;51.016;3.720;2022-11-21T01:45:52;14.77;;;5.10;;
20976;SDS011;10647;51.016;3.720;2022-11-21T01:48:25;15.63;;;4.23;;
20976;SDS011;10647;51.016;3.720;2022-11-21T01:51:18;17.27;;;4.50;;
20976;SDS011;10647;51.016;3.720;2022-11-21T01:53:43;15.53;;;4.03;;
20976;SDS011;10647;51.016;3.720;2022-11-21T01:56:15;13.20;;;4.27;;
20976;SDS011;10647;51.016;3.720;2022-11-21T02:01:31;14.33;;;3.63;;
20976;SDS011;10647;51.016;3.720;2022-11-21T02:04:02;20.83;;;4.30;;
20976;SDS011;10647;51.016;3.720;2022-11-21T02:06:37;16.27;;;3.83;;
20976;SDS011;10647;51.016;3.720;2022-11-21T02:09:05;11.10;;;3.70;;
20976;SDS011;10647;51.016;3.720;2022-11-21T02:11:35;16.20;;;3.53;;
20976;SDS011;10647;51.016;3.720;2022-11-21T02:14:10;17.53;;;3.83;;
20976;SDS011;10647;51.016;3.720;2022-11-21T02:16:38;18.60;;;3.30;;
20976;SDS011;10647;51.016;3.720;2022-11-21T02:19:07;17.13;;;3.47;;
20976;SDS011;10647;51.016;3.720;2022-11-21T02:21:54;11.73;;;3.30;;
20976;SDS011;10647;51.016;3.720;2022-11-21T02:25:00;10.60;;;3.30;;
20976;SDS011;10647;51.016;3.720;2022-11-21T02:27:35;7.67;;;2.97;;
20976;SDS011;10647;51.016;3.720;2022-11-21T02:30:04;10.30;;;2.93;;
20976;SDS011;10647;51.016;3.720;2022-11-21T02:32:35;14.73;;;2.87;;
20976;SDS011;10647;51.016;3.720;2022-11-21T02:35:05;14.77;;;2.90;;
20976;SDS011;10647;51.016;3.720;2022-11-21T02:40:23;10.20;;;2.70;;
20976;SDS011;10647;51.016;3.720;2022-11-21T02:45:51;10.50;;;2.70;;
20976;SDS011;10647;51.016;3.720;2022-11-21T02:48:19;11.17;;;2.70;;
20976;SDS011;10647;51.016;3.720;2022-11-21T02:53:33;11.47;;;3.10;;
20976;SDS011;10647;51.016;3.720;2022-11-21T02:56:02;14.77;;;3.10;;
20976;SDS011;10647;51.016;3.720;2022-11-21T02:58:31;14.13;;;3.40;;
20976;SDS011;10647;51.016;3.720;2022-11-21T03:01:05;11.23;;;3.13;;
20976;SDS011;10647;51.016;3.720;2022-11-21T03:03:38;14.17;;;3.53;;
20976;SDS011;10647;51.016;3.720;2022-11-21T03:06:06;10.20;;;3.40;;
20976;SDS011;10647;51.016;3.720;2022-11-21T03:08:33;11.43;;;3.37;;
20976;SDS011;10647;51.016;3.720;2022-11-21T03:11:02;10.93;;;3.30;;
20976;SDS011;10647;51.016;3.720;2022-11-21T03:13:32;13.23;;;3.43;;
20976;SDS011;10647;51.016;3.720;2022-11-21T03:18:36;15.90;;;3.73;;
20976;SDS011;10647;51.016;3.720;2022-11-21T03:21:11;15.17;;;4.00;;
20976;SDS011;10647;51.016;3.720;2022-11-21T03:23:40;15.70;;;4.10;;
20976;SDS011;10647;51.016;3.720;2022-11-21T03:26:09;6.63;;;3.30;;
20976;SDS011;10647;51.016;3.720;2022-11-21T03:28:39;9.60;;;3.60;;
20976;SDS011;10647;51.016;3.720;2022-11-21T03:31:27;12.33;;;3.70;;
20976;SDS011;10647;51.016;3.720;2022-11-21T03:33:54;12.47;;;4.07;;
20976;SDS011;10647;51.016;3.720;2022-11-21T03:36:22;9.93;;;3.80;;
20976;SDS011;10647;51.016;3.720;2022-11-21T03:38:49;17.93;;;4.00;;
20976;SDS011;10647;51.016;3.720;2022-11-21T03:41:23;9.07;;;3.47;;
20976;SDS011;10647;51.016;3.720;2022-11-21T03:43:55;13.23;;;3.87;;
20976;SDS011;10647;51.016;3.720;2022-11-21T03:46:24;16.77;;;5.03;;
20976;SDS011;10647;51.016;3.720;2022-11-21T03:48:52;11.03;;;3.40;;
20976;SDS011;10647;51.016;3.720;2022-11-21T03:51:20;9.40;;;2.90;;
20976;SDS011;10647;51.016;3.720;2022-11-21T03:59:22;12.57;;;3.13;;
20976;SDS011;10647;51.016;3.720;2022-11-21T04:04:33;9.83;;;3.63;;
20976;SDS011;10647;51.016;3.720;2022-11-21T04:07:06;13.40;;;3.07;;
20976;SDS011;10647;51.016;3.720;2022-11-21T04:09:35;12.73;;;3.40;;
20976;SDS011;10647;51.016;3.720;2022-11-21T04:14:36;8.13;;;2.70;;
20976;SDS011;10647;51.016;3.720;2022-11-21T04:19:53;12.07;;;3.10;;
20976;SDS011;10647;51.016;3.720;2022-11-21T04:22:21;10.37;;;3.23;;
20976;SDS011;10647;51.016;3.720;2022-11-21T04:24:48;10.57;;;2.97;;
20976;SDS011;10647;51.016;3.720;2022-11-21T04:27:16;10.07;;;3.07;;
20976;SDS011;10647;51.016;3.720;2022-11-21T04:29:43;9.70;;;2.97;;
20976;SDS011;10647;51.016;3.720;2022-11-21T04:32:11;16.37;;;3.27;;
20976;SDS011;10647;51.016;3.720;2022-11-21T04:34:38;12.87;;;3.10;;
20976;SDS011;10647;51.016;3.720;2022-11-21T04:37:06;12.57;;;3.23;;
20976;SDS011;10647;51.016;3.720;2022-11-21T04:39:34;12.37;;;3.37;;
20976;SDS011;10647;51.016;3.720;2022-11-21T04:42:01;13.70;;;3.37;;
20976;SDS011;10647;51.016;3.720;2022-11-21T04:44:29;14.00;;;3.57;;
20976;SDS011;10647;51.016;3.720;2022-11-21T04:46:57;14.37;;;3.97;;
20976;SDS011;10647;51.016;3.720;2022-11-21T04:49:25;12.13;;;3.83;;
20976;SDS011;10647;51.016;3.720;2022-11-21T04:51:52;11.30;;;3.10;;
20976;SDS011;10647;51.016;3.720;2022-11-21T04:54:20;11.13;;;3.80;;
20976;SDS011;10647;51.016;3.720;2022-11-21T04:56:47;12.17;;;3.90;;
20976;SDS011;10647;51.016;3.720;2022-11-21T04:59:15;16.80;;;3.97;;
20976;SDS011;10647;51.016;3.720;2022-11-21T05:01:42;10.90;;;3.63;;
20976;SDS011;10647;51.016;3.720;2022-11-21T05:04:10;12.17;;;3.93;;
20976;SDS011;10647;51.016;3.720;2022-11-21T05:06:38;16.53;;;3.90;;
20976;SDS011;10647;51.016;3.720;2022-11-21T05:09:06;12.97;;;3.63;;
20976;SDS011;10647;51.016;3.720;2022-11-21T05:11:34;15.23;;;3.90;;
20976;SDS011;10647;51.016;3.720;2022-11-21T05:14:20;10.30;;;3.47;;
20976;SDS011;10647;51.016;3.720;2022-11-21T05:16:49;15.33;;;3.77;;
20976;SDS011;10647;51.016;3.720;2022-11-21T05:19:17;8.80;;;3.43;;
20976;SDS011;10647;51.016;3.720;2022-11-21T05:21:44;12.83;;;3.30;;
20976;SDS011;10647;51.016;3.720;2022-11-21T05:24:12;14.13;;;3.50;;
20976;SDS011;10647;51.016;3.720;2022-11-21T05:26:39;17.43;;;3.57;;
20976;SDS011;10647;51.016;3.720;2022-11-21T05:29:07;10.47;;;3.53;;
20976;SDS011;10647;51.016;3.720;2022-11-21T05:31:34;8.97;;;3.53;;
20976;SDS011;10647;51.016;3.720;2022-11-21T05:34:02;16.43;;;3.80;;
20976;SDS011;10647;51.016;3.720;2022-11-21T05:36:29;13.13;;;3.93;;
20976;SDS011;10647;51.016;3.720;2022-11-21T05:38:57;16.73;;;3.80;;
20976;SDS011;10647;51.016;3.720;2022-11-21T05:41:24;10.50;;;3.57;;
20976;SDS011;10647;51.016;3.720;2022-11-21T05:43:52;13.93;;;3.43;;
20976;SDS011;10647;51.016;3.720;2022-11-21T05:46:20;12.17;;;3.80;;
20976;SDS011;10647;51.016;3.720;2022-11-21T05:48:50;14.50;;;3.60;;
20976;SDS011;10647;51.016;3.720;2022-11-21T05:51:18;11.83;;;3.57;;
20976;SDS011;10647;51.016;3.720;2022-11-21T05:53:46;13.47;;;3.27;;
20976;SDS011;10647;51.016;3.720;2022-11-21T05:56:15;12.03;;;3.50;;
20976;SDS011;10647;51.016;3.720;2022-11-21T05:58:44;17.33;;;3.80;;
20976;SDS011;10647;51.016;3.720;2022-11-21T06:01:12;17.73;;;4.03;;
20976;SDS011;10647;51.016;3.720;2022-11-21T06:03:42;17.00;;;3.97;;
20976;SDS011;10647;51.016;3.720;2022-11-21T06:06:14;18.37;;;3.77;;
20976;SDS011;10647;51.016;3.720;2022-11-21T06:08:43;18.37;;;3.70;;
20976;SDS011;10647;51.016;3.720;2022-11-21T06:11:12;11.43;;;4.23;;
20976;SDS011;10647;51.016;3.720;2022-11-21T06:13:41;11.30;;;3.53;;
20976;SDS011;10647;51.016;3.720;2022-11-21T06:16:10;12.40;;;3.93;;
20976;SDS011;10647;51.016;3.720;2022-11-21T06:18:40;15.03;;;4.50;;
20976;SDS011;10647;51.016;3.720;2022-11-21T06:21:18;14.00;;;3.73;;
20976;SDS011;10647;51.016;3.720;2022-11-21T06:23:51;17.23;;;4.50;;
20976;SDS011;10647;51.016;3.720;2022-11-21T06:26:21;11.97;;;3.80;;
20976;SDS011;10647;51.016;3.720;2022-11-21T06:28:51;14.60;;;4.40;;
20976;SDS011;10647;51.016;3.720;2022-11-21T06:31:21;17.00;;;4.43;;
20976;SDS011;10647;51.016;3.720;2022-11-21T06:33:55;15.60;;;4.07;;
20976;SDS011;10647;51.016;3.720;2022-11-21T06:36:23;13.97;;;4.47;;
20976;SDS011;10647;51.016;3.720;2022-11-21T06:38:52;18.00;;;4.40;;
20976;SDS011;10647;51.016;3.720;2022-11-21T06:41:21;17.30;;;4.00;;
20976;SDS011;10647;51.016;3.720;2022-11-21T06:43:51;14.07;;;5.10;;
20976;SDS011;10647;51.016;3.720;2022-11-21T06:46:24;18.03;;;4.90;;
20976;SDS011;10647;51.016;3.720;2022-11-21T06:48:52;21.17;;;4.93;;
20976;SDS011;10647;51.016;3.720;2022-11-21T06:51:21;16.70;;;4.83;;
20976;SDS011;10647;51.016;3.720;2022-11-21T06:53:53;18.60;;;4.53;;
20976;SDS011;10647;51.016;3.720;2022-11-21T06:56:22;12.30;;;4.97;;
20976;SDS011;10647;51.016;3.720;2022-11-21T06:58:50;13.50;;;4.97;;
20976;SDS011;10647;51.016;3.720;2022-11-21T07:01:24;21.50;;;4.33;;
20976;SDS011;10647;51.016;3.720;2022-11-21T07:03:59;11.60;;;3.70;;
20976;SDS011;10647;51.016;3.720;2022-11-21T07:06:26;18.53;;;4.53;;
20976;SDS011;10647;51.016;3.720;2022-11-21T07:08:54;19.73;;;4.27;;
20976;SDS011;10647;51.016;3.720;2022-11-21T07:11:21;12.33;;;4.03;;
20976;SDS011;10647;51.016;3.720;2022-11-21T07:13:49;15.93;;;4.20;;
20976;SDS011;10647;51.016;3.720;2022-11-21T07:16:16;15.97;;;4.13;;
20976;SDS011;10647;51.016;3.720;2022-11-21T07:18:44;17.03;;;4.60;;
20976;SDS011;10647;51.016;3.720;2022-11-21T07:21:11;14.93;;;3.80;;
20976;SDS011;10647;51.016;3.720;2022-11-21T07:23:39;21.40;;;4.37;;
20976;SDS011;10647;51.016;3.720;2022-11-21T07:26:08;14.03;;;4.03;;
20976;SDS011;10647;51.016;3.720;2022-11-21T07:28:36;16.83;;;4.87;;
20976;SDS011;10647;51.016;3.720;2022-11-21T07:33:51;15.77;;;4.00;;
20976;SDS011;10647;51.016;3.720;2022-11-21T07:36:18;17.50;;;4.63;;
20976;SDS011;10647;51.016;3.720;2022-11-21T07:38:47;14.40;;;4.67;;
20976;SDS011;10647;51.016;3.720;2022-11-21T07:41:14;18.00;;;4.53;;
20976;SDS011;10647;51.016;3.720;2022-11-21T07:43:42;22.73;;;4.80;;
20976;SDS011;10647;51.016;3.720;2022-11-21T07:46:09;17.20;;;4.57;;
20976;SDS011;10647;51.016;3.720;2022-11-21T07:48:37;21.77;;;5.13;;
20976;SDS011;10647;51.016;3.720;2022-11-21T07:51:04;17.57;;;4.73;;
20976;SDS011;10647;51.016;3.720;2022-11-21T07:53:32;23.67;;;5.17;;
20976;SDS011;10647;51.016;3.720;2022-11-21T07:55:59;18.20;;;4.67;;
20976;SDS011;10647;51.016;3.720;2022-11-21T07:58:27;24.73;;;5.30;;
20976;SDS011;10647;51.016;3.720;2022-11-21T08:00:55;25.13;;;5.20;;
20976;SDS011;10647;51.016;3.720;2022-11-21T08:03:22;21.10;;;5.07;;
20976;SDS011;10647;51.016;3.720;2022-11-21T08:05:50;17.67;;;4.90;;
20976;SDS011;10647;51.016;3.720;2022-11-21T08:08:17;17.70;;;4.67;;
20976;SDS011;10647;51.016;3.720;2022-11-21T08:10:45;20.50;;;4.87;;
20976;SDS011;10647;51.016;3.720;2022-11-21T08:13:12;18.70;;;5.30;;
20976;SDS011;10647;51.016;3.720;2022-11-21T08:15:40;20.03;;;5.13;;
20976;SDS011;10647;51.016;3.720;2022-11-21T08:18:08;25.37;;;4.50;;
20976;SDS011;10647;51.016;3.720;2022-11-21T08:20:38;22.00;;;4.53;;
20976;SDS011;10647;51.016;3.720;2022-11-21T08:23:06;22.17;;;5.00;;
20976;SDS011;10647;51.016;3.720;2022-11-21T08:25:38;27.53;;;5.43;;
20976;SDS011;10647;51.016;3.720;2022-11-21T08:28:07;26.27;;;5.50;;
20976;SDS011;10647;51.016;3.720;2022-11-21T08:30:37;28.90;;;4.63;;
20976;SDS011;10647;51.016;3.720;2022-11-21T08:33:05;20.40;;;4.90;;
20976;SDS011;10647;51.016;3.720;2022-11-21T08:35:34;16.07;;;4.13;;
20976;SDS011;10647;51.016;3.720;2022-11-21T08:38:07;17.70;;;5.00;;
20976;SDS011;10647;51.016;3.720;2022-11-21T08:40:34;17.07;;;4.33;;
20976;SDS011;10647;51.016;3.720;2022-11-21T08:43:03;14.27;;;3.93;;
20976;SDS011;10647;51.016;3.720;2022-11-21T08:45:33;14.50;;;3.70;;
20976;SDS011;10647;51.016;3.720;2022-11-21T08:48:02;11.93;;;3.50;;
20976;SDS011;10647;51.016;3.720;2022-11-21T08:50:43;15.07;;;4.03;;
20976;SDS011;10647;51.016;3.720;2022-11-21T08:53:07;13.00;;;3.60;;
20976;SDS011;10647;51.016;3.720;2022-11-21T08:55:34;14.93;;;3.53;;
20976;SDS011;10647;51.016;3.720;2022-11-21T08:58:02;20.10;;;3.87;;
20976;SDS011;10647;51.016;3.720;2022-11-21T09:00:30;14.80;;;3.60;;
20976;SDS011;10647;51.016;3.720;2022-11-21T09:02:58;18.43;;;3.90;;
20976;SDS011;10647;51.016;3.720;2022-11-21T09:05:27;20.93;;;4.07;;
20976;SDS011;10647;51.016;3.720;2022-11-21T09:07:55;16.80;;;3.73;;
20976;SDS011;10647;51.016;3.720;2022-11-21T09:10:24;15.57;;;4.33;;
20976;SDS011;10647;51.016;3.720;2022-11-21T09:12:52;14.00;;;3.90;;
20976;SDS011;10647;51.016;3.720;2022-11-21T09:15:19;16.83;;;3.53;;
20976;SDS011;10647;51.016;3.720;2022-11-21T09:18:05;14.27;;;4.00;;
20976;SDS011;10647;51.016;3.720;2022-11-21T09:20:39;13.53;;;3.73;;
20976;SDS011;10647;51.016;3.720;2022-11-21T09:23:11;12.70;;;3.20;;
20976;SDS011;10647;51.016;3.720;2022-11-21T09:25:40;18.97;;;3.83;;
20976;SDS011;10647;51.016;3.720;2022-11-21T09:28:10;12.27;;;3.10;;
20976;SDS011;10647;51.016;3.720;2022-11-21T09:31:01;13.57;;;3.47;;
20976;SDS011;10647;51.016;3.720;2022-11-21T09:33:35;13.10;;;3.73;;
20976;SDS011;10647;51.016;3.720;2022-11-21T09:36:03;13.90;;;4.17;;
20976;SDS011;10647;51.016;3.720;2022-11-21T09:38:34;14.80;;;3.30;;
20976;SDS011;10647;51.016;3.720;2022-11-21T09:41:08;12.10;;;3.40;;
20976;SDS011;10647;51.016;3.720;2022-11-21T09:46:48;11.87;;;3.20;;
20976;SDS011;10647;51.016;3.720;2022-11-21T09:49:18;20.80;;;3.50;;
20976;SDS011;10647;51.016;3.720;2022-11-21T09:51:48;15.43;;;3.57;;
20976;SDS011;10647;51.016;3.720;2022-11-21T09:54:27;16.10;;;3.80;;
20976;SDS011;10647;51.016;3.720;2022-11-21T09:57:11;12.53;;;3.37;;
20976;SDS011;10647;51.016;3.720;2022-11-21T09:59:42;16.07;;;3.57;;
20976;SDS011;10647;51.016;3.720;2022-11-21T10:02:16;11.03;;;3.63;;
20976;SDS011;10647;51.016;3.720;2022-11-21T10:04:45;14.90;;;4.00;;
20976;SDS011;10647;51.016;3.720;2022-11-21T10:07:24;15.70;;;3.90;;
20976;SDS011;10647;51.016;3.720;2022-11-21T10:18:34;20.87;;;4.93;;
20976;SDS011;10647;51.016;3.720;2022-11-21T10:24:02;20.13;;;5.47;;
20976;SDS011;10647;51.016;3.720;2022-11-21T10:26:37;13.73;;;4.17;;
20976;SDS011;10647;51.016;3.720;2022-11-21T10:31:45;20.90;;;5.63;;
20976;SDS011;10647;51.016;3.720;2022-11-21T10:34:17;16.63;;;4.50;;
20976;SDS011;10647;51.016;3.720;2022-11-21T10:36:49;15.50;;;4.57;;
20976;SDS011;10647;51.016;3.720;2022-11-21T10:39:43;15.67;;;4.20;;
20976;SDS011;10647;51.016;3.720;2022-11-21T10:45:19;13.20;;;4.60;;
20976;SDS011;10647;51.016;3.720;2022-11-21T10:47:51;19.10;;;5.50;;
20976;SDS011;10647;51.016;3.720;2022-11-21T10:50:37;15.50;;;5.37;;
20976;SDS011;10647;51.016;3.720;2022-11-21T10:53:14;21.00;;;6.63;;
20976;SDS011;10647;51.016;3.720;2022-11-21T10:56:13;17.13;;;6.90;;
20976;SDS011;10647;51.016;3.720;2022-11-21T10:58:57;24.73;;;10.27;;
20976;SDS011;10647;51.016;3.720;2022-11-21T11:04:17;27.50;;;9.23;;
20976;SDS011;10647;51.016;3.720;2022-11-21T11:06:46;21.50;;;7.30;;
20976;SDS011;10647;51.016;3.720;2022-11-21T11:09:33;17.73;;;7.90;;
20976;SDS011;10647;51.016;3.720;2022-11-21T11:15:24;20.50;;;7.50;;
20976;SDS011;10647;51.016;3.720;2022-11-21T11:17:56;18.83;;;7.83;;
20976;SDS011;10647;51.016;3.720;2022-11-21T11:20:43;19.17;;;7.57;;
20976;SDS011;10647;51.016;3.720;2022-11-21T11:25:49;18.30;;;7.97;;
20976;SDS011;10647;51.016;3.720;2022-11-21T11:28:18;19.83;;;8.00;;
20976;SDS011;10647;51.016;3.720;2022-11-21T11:30:46;22.03;;;7.87;;
20976;SDS011;10647;51.016;3.720;2022-11-21T11:36:22;17.97;;;7.97;;
20976;SDS011;10647;51.016;3.720;2022-11-21T11:48:07;21.83;;;8.80;;
20976;SDS011;10647;51.016;3.720;2022-11-21T11:50:48;23.87;;;8.50;;
20976;SDS011;10647;51.016;3.720;2022-11-21T11:53:25;17.83;;;7.93;;
20976;SDS011;10647;51.016;3.720;2022-11-21T11:56:14;21.63;;;8.80;;
20976;SDS011;10647;51.016;3.720;2022-11-21T11:58:53;18.83;;;9.00;;
20976;SDS011;10647;51.016;3.720;2022-11-21T12:01:54;18.97;;;7.57;;
20976;SDS011;10647;51.016;3.720;2022-11-21T12:04:36;24.90;;;8.93;;
20976;SDS011;10647;51.016;3.720;2022-11-21T12:07:20;17.03;;;7.53;;
20976;SDS011;10647;51.016;3.720;2022-11-21T12:12:41;20.00;;;7.90;;
20976;SDS011;10647;51.016;3.720;2022-11-21T12:15:12;17.17;;;7.83;;
20976;SDS011;10647;51.016;3.720;2022-11-21T12:23:51;20.60;;;7.50;;
20976;SDS011;10647;51.016;3.720;2022-11-21T12:26:32;18.40;;;7.33;;
20976;SDS011;10647;51.016;3.720;2022-11-21T12:44:50;21.77;;;8.03;;
20976;SDS011;10647;51.016;3.720;2022-11-21T12:47:26;23.93;;;7.43;;
20976;SDS011;10647;51.016;3.720;2022-11-21T12:50:02;17.13;;;7.40;;
20976;SDS011;10647;51.016;3.720;2022-11-21T12:53:03;20.63;;;7.60;;
20976;SDS011;10647;51.016;3.720;2022-11-21T12:56:06;28.83;;;9.20;;
20976;SDS011;10647;51.016;3.720;2022-11-21T12:58:43;19.13;;;7.00;;
20976;SDS011;10647;51.016;3.720;2022-11-21T13:04:14;24.83;;;6.80;;
20976;SDS011;10647;51.016;3.720;2022-11-21T13:07:02;23.40;;;6.83;;
20976;SDS011;10647;51.016;3.720;2022-11-21T13:12:28;17.20;;;6.63;;
20976;SDS011;10647;51.016;3.720;2022-11-21T13:15:22;13.43;;;5.87;;
20976;SDS011;10647;51.016;3.720;2022-11-21T13:18:22;22.47;;;6.77;;
20976;SDS011;10647;51.016;3.720;2022-11-21T13:20:57;15.97;;;6.70;;
20976;SDS011;10647;51.016;3.720;2022-11-21T13:26:43;15.97;;;5.10;;
20976;SDS011;10647;51.016;3.720;2022-11-21T13:40:40;21.00;;;6.63;;
20976;SDS011;10647;51.016;3.720;2022-11-21T13:46:19;17.80;;;4.90;;
20976;SDS011;10647;51.016;3.720;2022-11-21T13:48:51;13.43;;;4.90;;
20976;SDS011;10647;51.016;3.720;2022-11-21T14:12:03;17.70;;;4.83;;
20976;SDS011;10647;51.016;3.720;2022-11-21T14:14:35;13.23;;;4.40;;
20976;SDS011;10647;51.016;3.720;2022-11-21T14:20:21;17.70;;;3.90;;
20976;SDS011;10647;51.016;3.720;2022-11-21T14:22:55;14.00;;;3.43;;
20976;SDS011;10647;51.016;3.720;2022-11-21T14:28:01;16.73;;;3.53;;
20976;SDS011;10647;51.016;3.720;2022-11-21T14:30:32;18.83;;;4.30;;
20976;SDS011;10647;51.016;3.720;2022-11-21T14:36:08;10.47;;;5.17;;
20976;SDS011;10647;51.016;3.720;2022-11-21T14:39:13;15.23;;;5.60;;
20976;SDS011;10647;51.016;3.720;2022-11-21T14:41:56;18.60;;;6.43;;
20976;SDS011;10647;51.016;3.720;2022-11-21T14:44:26;9.93;;;5.00;;
20976;SDS011;10647;51.016;3.720;2022-11-21T14:49:49;20.93;;;5.30;;
20976;SDS011;10647;51.016;3.720;2022-11-21T14:52:32;14.67;;;5.07;;
20976;SDS011;10647;51.016;3.720;2022-11-21T14:55:32;13.53;;;4.90;;
20976;SDS011;10647;51.016;3.720;2022-11-21T14:58:03;13.27;;;5.00;;
20976;SDS011;10647;51.016;3.720;2022-11-21T15:03:34;11.83;;;4.30;;
20976;SDS011;10647;51.016;3.720;2022-11-21T15:06:03;11.27;;;3.30;;
20976;SDS011;10647;51.016;3.720;2022-11-21T15:08:52;11.23;;;3.70;;
20976;SDS011;10647;51.016;3.720;2022-11-21T15:11:37;16.00;;;5.43;;
20976;SDS011;10647;51.016;3.720;2022-11-21T15:14:26;12.13;;;4.60;;
20976;SDS011;10647;51.016;3.720;2022-11-21T15:16:46;14.67;;;3.93;;
20976;SDS011;10647;51.016;3.720;2022-11-21T15:19:25;16.53;;;4.00;;
20976;SDS011;10647;51.016;3.720;2022-11-21T15:21:55;10.67;;;2.80;;
20976;SDS011;10647;51.016;3.720;2022-11-21T15:24:35;14.13;;;3.37;;
20976;SDS011;10647;51.016;3.720;2022-11-21T15:33:03;15.70;;;3.40;;
20976;SDS011;10647;51.016;3.720;2022-11-21T15:35:42;9.77;;;3.40;;
20976;SDS011;10647;51.016;3.720;2022-11-21T15:38:18;11.27;;;3.33;;
20976;SDS011;10647;51.016;3.720;2022-11-21T15:43:42;13.23;;;3.80;;
20976;SDS011;10647;51.016;3.720;2022-11-21T15:46:15;14.30;;;3.90;;
20976;SDS011;10647;51.016;3.720;2022-11-21T15:49:15;12.23;;;3.73;;
20976;SDS011;10647;51.016;3.720;2022-11-21T15:51:44;14.53;;;3.97;;
20976;SDS011;10647;51.016;3.720;2022-11-21T15:54:18;21.97;;;3.87;;
20976;SDS011;10647;51.016;3.720;2022-11-21T15:56:43;12.47;;;3.20;;
20976;SDS011;10647;51.016;3.720;2022-11-21T15:59:12;10.10;;;3.27;;
20976;SDS011;10647;51.016;3.720;2022-11-21T16:01:40;13.63;;;4.07;;
20976;SDS011;10647;51.016;3.720;2022-11-21T16:04:09;13.80;;;3.83;;
20976;SDS011;10647;51.016;3.720;2022-11-21T16:06:37;12.50;;;3.73;;
20976;SDS011;10647;51.016;3.720;2022-11-21T16:09:06;11.10;;;3.53;;
20976;SDS011;10647;51.016;3.720;2022-11-21T16:11:36;15.83;;;3.50;;
20976;SDS011;10647;51.016;3.720;2022-11-21T16:14:06;17.00;;;3.77;;
20976;SDS011;10647;51.016;3.720;2022-11-21T16:16:38;11.27;;;3.80;;
20976;SDS011;10647;51.016;3.720;2022-11-21T16:19:08;15.30;;;4.00;;
20976;SDS011;10647;51.016;3.720;2022-11-21T16:21:39;41.47;;;17.63;;
20976;SDS011;10647;51.016;3.720;2022-11-21T16:24:07;14.07;;;4.30;;
20976;SDS011;10647;51.016;3.720;2022-11-21T16:26:36;15.23;;;3.93;;
20976;SDS011;10647;51.016;3.720;2022-11-21T16:29:08;13.27;;;4.10;;
20976;SDS011;10647;51.016;3.720;2022-11-21T16:31:36;15.80;;;3.63;;
20976;SDS011;10647;51.016;3.720;2022-11-21T16:34:04;16.70;;;4.10;;
20976;SDS011;10647;51.016;3.720;2022-11-21T16:36:31;14.80;;;3.50;;
20976;SDS011;10647;51.016;3.720;2022-11-21T16:38:59;19.70;;;3.93;;
20976;SDS011;10647;51.016;3.720;2022-11-21T16:41:28;12.27;;;4.07;;
20976;SDS011;10647;51.016;3.720;2022-11-21T16:43:55;16.17;;;4.20;;
20976;SDS011;10647;51.016;3.720;2022-11-21T16:46:23;16.07;;;3.50;;
20976;SDS011;10647;51.016;3.720;2022-11-21T16:49:00;18.53;;;3.83;;
20976;SDS011;10647;51.016;3.720;2022-11-21T16:54:14;17.23;;;3.77;;
20976;SDS011;10647;51.016;3.720;2022-11-21T16:56:42;22.10;;;3.80;;
20976;SDS011;10647;51.016;3.720;2022-11-21T16:59:09;13.37;;;3.27;;
20976;SDS011;10647;51.016;3.720;2022-11-21T17:01:37;16.43;;;3.50;;
20976;SDS011;10647;51.016;3.720;2022-11-21T17:04:04;21.43;;;4.10;;
20976;SDS011;10647;51.016;3.720;2022-11-21T17:06:32;20.47;;;4.40;;
20976;SDS011;10647;51.016;3.720;2022-11-21T17:09:00;11.97;;;3.23;;
20976;SDS011;10647;51.016;3.720;2022-11-21T17:11:28;18.77;;;3.23;;
20976;SDS011;10647;51.016;3.720;2022-11-21T17:14:01;15.20;;;3.83;;
20976;SDS011;10647;51.016;3.720;2022-11-21T17:16:31;15.77;;;2.90;;
20976;SDS011;10647;51.016;3.720;2022-11-21T17:18:59;16.37;;;3.60;;
20976;SDS011;10647;51.016;3.720;2022-11-21T17:21:32;20.37;;;3.40;;
20976;SDS011;10647;51.016;3.720;2022-11-21T17:24:00;14.53;;;2.67;;
20976;SDS011;10647;51.016;3.720;2022-11-21T17:26:27;11.23;;;2.40;;
20976;SDS011;10647;51.016;3.720;2022-11-21T17:28:58;12.10;;;2.40;;
20976;SDS011;10647;51.016;3.720;2022-11-21T17:34:05;16.97;;;2.97;;
20976;SDS011;10647;51.016;3.720;2022-11-21T17:36:33;15.00;;;2.80;;
20976;SDS011;10647;51.016;3.720;2022-11-21T17:39:00;14.63;;;2.80;;
20976;SDS011;10647;51.016;3.720;2022-11-21T17:41:28;15.70;;;3.97;;
20976;SDS011;10647;51.016;3.720;2022-11-21T17:44:01;12.60;;;3.67;;
20976;SDS011;10647;51.016;3.720;2022-11-21T17:46:35;18.47;;;3.57;;
20976;SDS011;10647;51.016;3.720;2022-11-21T17:49:02;16.53;;;3.60;;
20976;SDS011;10647;51.016;3.720;2022-11-21T17:51:32;12.40;;;3.80;;
20976;SDS011;10647;51.016;3.720;2022-11-21T17:54:03;16.83;;;4.20;;
20976;SDS011;10647;51.016;3.720;2022-11-21T17:56:33;20.37;;;4.67;;
20976;SDS011;10647;51.016;3.720;2022-11-21T17:59:03;17.07;;;4.60;;
20976;SDS011;10647;51.016;3.720;2022-11-21T18:01:38;23.37;;;7.03;;
20976;SDS011;10647;51.016;3.720;2022-11-21T18:04:05;16.07;;;4.00;;